Time;durP1;ratioP1;P1;durP2;ratioP2;P2;SDS_P1;SDS_P2;PMS_P1;PMS_P2;Temp;Humidity;BMP_temperature;BMP_pressure;BME280_temperature;BME280_humidity;BME280_pressure;Samples;Min_cycle;Max_cycle;Signal;HPM_P1;HPM_P2
2023/08/25 00:02:32;;;;;;;6.80;4.00;;;;;;;;;;10368844;28;20504;-67
2023/08/25 00:07:33;;;;;;;5.80;4.23;;;;;;;;;;10374069;28;20037;-66
2023/08/25 00:12:33;;;;;;;5.90;3.90;;;;;;;;;;10373731;28;20068;-67
2023/08/25 00:17:33;;;;;;;4.77;3.87;;;;;;;;;;10373472;28;20022;-65
2023/08/25 00:22:34;;;;;;;6.47;4.00;;;;;;;;;;10373538;28;20026;-64
2023/08/25 00:27:35;;;;;;;4.32;3.78;;;;;;;;;;10373198;28;20440;-63
2023/08/25 00:32:35;;;;;;;5.70;4.07;;;;;;;;;;10373501;28;20068;-64
2023/08/25 00:37:35;;;;;;;5.47;3.87;;;;;;;;;;10373352;28;20041;-64
2023/08/25 00:42:36;;;;;;;7.30;3.80;;;;;;;;;;10371512;28;20440;-63
2023/08/25 00:47:37;;;;;;;6.28;3.85;;;;;;;;;;10372337;28;20467;-67
2023/08/25 00:52:38;;;;;;;5.30;3.63;;;;;;;;;;10372079;28;20084;-68
2023/08/25 00:57:38;;;;;;;6.20;4.18;;;;;;;;;;10371730;28;20030;-67
2023/08/25 01:02:39;;;;;;;5.27;3.80;;;;;;;;;;10372369;28;20033;-67
2023/08/25 01:07:39;;;;;;;9.27;3.85;;;;;;;;;;10371959;28;20517;-69
2023/08/25 01:13:05;;;;;;;7.30;3.30;;;;;;;;;;10370608;28;20033;-67
2023/08/25 01:18:12;;;;;;;3.88;3.47;;;;;;;;;;10371063;28;20036;-70
2023/08/25 01:23:25;;;;;;;4.63;3.97;;;;;;;;;;10371295;28;20033;-67
2023/08/25 01:28:26;;;;;;;6.38;3.42;;;;;;;;;;10370828;28;20036;-61
2023/08/25 01:33:30;;;;;;;6.82;3.85;;;;;;;;;;10370667;28;20054;-60
2023/08/25 01:38:36;;;;;;;4.85;3.28;;;;;;;;;;10369886;28;20495;-68
2023/08/25 01:43:39;;;;;;;6.78;4.15;;;;;;;;;;10370310;28;20168;-67
2023/08/25 01:48:40;;;;;;;7.57;3.17;;;;;;;;;;10369960;28;20025;-68
2023/08/25 01:53:44;;;;;;;10.15;3.88;;;;;;;;;;10369560;28;20116;-69
2023/08/25 01:58:44;;;;;;;3.97;3.30;;;;;;;;;;10369554;28;20087;-68
2023/08/25 02:03:45;;;;;;;5.10;3.30;;;;;;;;;;10370138;28;20026;-68
2023/08/25 02:08:45;;;;;;;3.97;3.50;;;;;;;;;;10369165;28;20443;-66
2023/08/25 02:13:45;;;;;;;4.43;3.40;;;;;;;;;;10368843;28;20041;-67
2023/08/25 02:18:46;;;;;;;4.70;3.53;;;;;;;;;;10369422;28;20026;-65
2023/08/25 02:23:46;;;;;;;3.90;3.50;;;;;;;;;;10368547;28;20105;-63
2023/08/25 02:28:46;;;;;;;3.83;3.30;;;;;;;;;;10368404;28;20466;-68
2023/08/25 02:33:47;;;;;;;3.97;3.47;;;;;;;;;;10368440;28;20042;-68
2023/08/25 02:38:47;;;;;;;3.90;3.17;;;;;;;;;;10368248;28;20137;-70
2023/08/25 02:43:47;;;;;;;5.47;3.57;;;;;;;;;;10368264;28;20026;-69
2023/08/25 02:48:48;;;;;;;3.97;3.40;;;;;;;;;;10368170;28;20447;-63
2023/08/25 02:53:48;;;;;;;4.57;3.13;;;;;;;;;;10368403;28;20034;-62
2023/08/25 02:58:48;;;;;;;6.00;3.07;;;;;;;;;;10368819;28;20376;-62
2023/08/25 03:03:49;;;;;;;5.67;3.40;;;;;;;;;;10367935;28;20520;-61
2023/08/25 03:08:49;;;;;;;4.03;3.13;;;;;;;;;;10368321;28;20037;-61
2023/08/25 03:13:49;;;;;;;5.47;3.90;;;;;;;;;;10368013;28;20398;-61
2023/08/25 03:18:50;;;;;;;3.77;3.07;;;;;;;;;;10367556;28;20484;-66
2023/08/25 03:23:50;;;;;;;4.70;3.07;;;;;;;;;;10367991;28;20033;-65
2023/08/25 03:28:50;;;;;;;3.87;3.40;;;;;;;;;;10368259;28;20370;-62
2023/08/25 03:33:51;;;;;;;4.93;3.10;;;;;;;;;;10367478;28;20466;-65
2023/08/25 03:38:51;;;;;;;3.77;3.00;;;;;;;;;;10371517;28;20417;-62
2023/08/25 03:43:52;;;;;;;11.73;3.50;;;;;;;;;;10375437;28;20430;-70
2023/08/25 03:48:52;;;;;;;4.70;3.40;;;;;;;;;;10374745;28;20449;-71
2023/08/25 03:53:52;;;;;;;3.57;3.20;;;;;;;;;;10373681;28;20038;-66
2023/08/25 03:58:53;;;;;;;6.33;3.60;;;;;;;;;;10374393;28;20973;-68
2023/08/25 04:03:53;;;;;;;4.27;3.40;;;;;;;;;;10374552;28;20108;-71
2023/08/25 04:08:53;;;;;;;6.90;3.40;;;;;;;;;;10375066;28;20032;-65
2023/08/25 04:13:54;;;;;;;3.03;2.80;;;;;;;;;;10373985;28;20034;-66
2023/08/25 04:18:54;;;;;;;4.47;3.40;;;;;;;;;;10374053;28;20033;-66
2023/08/25 04:23:55;;;;;;;3.80;3.10;;;;;;;;;;10373265;28;20366;-66
2023/08/25 04:28:55;;;;;;;5.80;3.53;;;;;;;;;;10373128;28;20386;-65
2023/08/25 04:33:56;;;;;;;6.63;2.70;;;;;;;;;;10372887;28;20113;-66
2023/08/25 04:38:56;;;;;;;4.03;3.17;;;;;;;;;;10372499;28;20495;-67
2023/08/25 04:43:56;;;;;;;5.77;3.60;;;;;;;;;;10372824;28;20370;-66
2023/08/25 04:48:57;;;;;;;3.17;2.87;;;;;;;;;;10371994;28;20028;-65
2023/08/25 04:53:57;;;;;;;3.37;2.97;;;;;;;;;;10371815;28;20037;-67
2023/08/25 04:58:58;;;;;;;4.90;3.30;;;;;;;;;;10372435;28;20037;-66
2023/08/25 05:03:58;;;;;;;22.60;3.63;;;;;;;;;;10372355;28;20104;-73
2023/08/25 05:08:58;;;;;;;4.30;2.77;;;;;;;;;;10372174;28;20492;-68
2023/08/25 05:13:59;;;;;;;3.77;3.10;;;;;;;;;;10371694;28;20092;-71
2023/08/25 05:18:59;;;;;;;15.32;3.30;;;;;;;;;;10370623;28;20030;-68
2023/08/25 05:24:26;;;;;;;3.63;3.20;;;;;;;;;;10370705;28;20076;-68
2023/08/25 05:29:27;;;;;;;3.20;2.90;;;;;;;;;;10370641;28;20486;-72
2023/08/25 05:34:28;;;;;;;5.60;2.78;;;;;;;;;;10383962;23;20021;-66
2023/08/25 05:39:28;;;;;;;9.68;3.20;;;;;;;;;;10369547;28;20025;-60
2023/08/25 05:44:29;;;;;;;10.83;3.17;;;;;;;;;;10369937;28;20026;-59
2023/08/25 05:49:29;;;;;;;11.93;3.63;;;;;;;;;;10370072;28;20532;-59
2023/08/25 05:54:31;;;;;;;8.82;5.43;;;;;;;;;;10370034;28;20050;-60
2023/08/25 05:59:34;;;;;;;10.73;6.43;;;;;;;;;;10368605;28;20112;-60
2023/08/25 06:04:34;;;;;;;9.70;6.70;;;;;;;;;;10369391;28;20018;-61
2023/08/25 06:09:35;;;;;;;11.60;7.50;;;;;;;;;;10368951;28;20025;-63
2023/08/25 06:14:35;;;;;;;13.73;7.20;;;;;;;;;;10368788;28;20029;-63
2023/08/25 06:19:37;;;;;;;12.97;7.60;;;;;;;;;;10367433;28;20033;-65
2023/08/25 06:24:37;;;;;;;16.08;8.05;;;;;;;;;;10367604;28;20080;-67
2023/08/25 06:29:38;;;;;;;15.73;7.80;;;;;;;;;;10367910;28;20474;-67
2023/08/25 06:34:38;;;;;;;16.17;8.50;;;;;;;;;;10368520;28;20037;-67
2023/08/25 06:39:40;;;;;;;15.47;7.87;;;;;;;;;;10368866;28;20577;-67
2023/08/25 06:44:41;;;;;;;11.98;8.25;;;;;;;;;;10368343;28;20061;-66
2023/08/25 06:49:41;;;;;;;18.90;8.05;;;;;;;;;;10367945;28;20036;-66
2023/08/25 06:54:41;;;;;;;20.17;8.53;;;;;;;;;;10367339;28;20021;-66
2023/08/25 06:59:42;;;;;;;14.43;8.83;;;;;;;;;;10368262;28;20462;-67
2023/08/25 07:04:42;;;;;;;14.77;8.43;;;;;;;;;;10367554;28;20476;-67
2023/08/25 07:09:43;;;;;;;16.67;8.82;;;;;;;;;;10367552;28;20050;-67
2023/08/25 07:14:43;;;;;;;21.20;8.50;;;;;;;;;;10375006;28;20026;-67
2023/08/25 07:19:44;;;;;;;18.15;8.68;;;;;;;;;;10376203;28;20018;-67
2023/08/25 07:24:46;;;;;;;24.65;8.63;;;;;;;;;;10375468;28;20033;-67
2023/08/25 07:29:46;;;;;;;18.45;8.82;;;;;;;;;;10375650;28;20029;-67
2023/08/25 07:34:47;;;;;;;16.53;9.00;;;;;;;;;;10374857;28;20057;-67
2023/08/25 07:39:51;;;;;;;15.90;8.15;;;;;;;;;;10374479;28;20427;-67
2023/08/25 07:44:51;;;;;;;18.08;8.27;;;;;;;;;;10374149;28;20022;-69
2023/08/25 07:49:52;;;;;;;21.70;8.70;;;;;;;;;;10374118;28;20473;-68
2023/08/25 07:54:53;;;;;;;26.65;8.30;;;;;;;;;;10374383;28;20366;-69
2023/08/25 07:59:53;;;;;;;28.70;9.00;;;;;;;;;;10374102;28;20022;-66
2023/08/25 08:04:53;;;;;;;14.47;8.47;;;;;;;;;;10373580;28;20105;-66
2023/08/25 08:09:54;;;;;;;20.83;9.20;;;;;;;;;;10373829;28;20054;-66
2023/08/25 08:14:54;;;;;;;14.77;8.40;;;;;;;;;;10373180;28;20036;-66
2023/08/25 08:19:54;;;;;;;25.93;8.63;;;;;;;;;;10373681;28;20037;-66
2023/08/25 08:24:55;;;;;;;18.37;8.03;;;;;;;;;;10372140;28;20032;-67
2023/08/25 08:29:55;;;;;;;12.70;8.07;;;;;;;;;;10372956;28;20034;-68
2023/08/25 08:34:56;;;;;;;26.27;8.17;;;;;;;;;;10373033;28;20058;-67
2023/08/25 08:39:56;;;;;;;16.20;7.93;;;;;;;;;;10372557;28;20118;-68
2023/08/25 08:45:03;;;;;;;15.97;8.10;;;;;;;;;;10372021;28;20056;-66
2023/08/25 08:50:06;;;;;;;18.27;8.10;;;;;;;;;;10371903;28;20033;-66
2023/08/25 08:55:08;;;;;;;13.80;7.88;;;;;;;;;;10372437;28;20034;-67
2023/08/25 09:00:10;;;;;;;12.00;8.02;;;;;;;;;;10371583;28;20196;-67
2023/08/25 09:05:12;;;;;;;16.13;8.95;;;;;;;;;;10372454;28;20033;-66
2023/08/25 09:10:12;;;;;;;11.82;8.05;;;;;;;;;;10370507;28;20018;-66
2023/08/25 09:15:26;;;;;;;15.20;8.67;;;;;;;;;;10371382;28;20029;-63
2023/08/25 09:20:29;;;;;;;14.70;8.68;;;;;;;;;;10372384;28;20041;-66
2023/08/25 09:25:29;;;;;;;14.60;8.25;;;;;;;;;;10371182;28;20025;-64
2023/08/25 09:30:36;;;;;;;18.25;8.32;;;;;;;;;;10370904;28;20030;-63
2023/08/25 09:35:37;;;;;;;13.75;8.25;;;;;;;;;;10370386;28;20132;-64
2023/08/25 09:40:45;;;;;;;19.38;8.60;;;;;;;;;;10370620;28;20489;-64
2023/08/25 09:45:46;;;;;;;16.52;8.30;;;;;;;;;;10370968;28;20026;-64
2023/08/25 09:50:46;;;;;;;22.50;9.17;;;;;;;;;;10370251;28;20366;-64
2023/08/25 09:55:47;;;;;;;17.27;8.30;;;;;;;;;;10368712;28;20030;-64
2023/08/25 10:00:48;;;;;;;20.38;8.32;;;;;;;;;;10367927;28;20080;-66
2023/08/25 10:05:48;;;;;;;13.65;8.63;;;;;;;;;;10368214;28;20022;-66
2023/08/25 10:10:48;;;;;;;20.93;8.53;;;;;;;;;;10369208;28;20112;-67
2023/08/25 10:15:50;;;;;;;15.07;8.37;;;;;;;;;;10369030;28;20034;-67
2023/08/25 10:20:50;;;;;;;13.88;8.68;;;;;;;;;;10368073;28;20436;-66
2023/08/25 10:25:51;;;;;;;19.10;8.93;;;;;;;;;;10368715;28;20084;-66
2023/08/25 10:30:51;;;;;;;16.77;8.43;;;;;;;;;;10367377;28;20531;-66
2023/08/25 10:35:54;;;;;;;21.38;8.55;;;;;;;;;;10368217;28;20041;-67
2023/08/25 10:40:55;;;;;;;18.55;8.35;;;;;;;;;;10368875;28;20299;-66
2023/08/25 10:45:56;;;;;;;16.08;9.20;;;;;;;;;;10367707;28;20026;-67
2023/08/25 10:51:09;;;;;;;18.83;9.10;;;;;;;;;;10367706;28;20109;-66
2023/08/25 10:56:18;;;;;;;13.18;9.18;;;;;;;;;;10368180;28;20475;-67
2023/08/25 11:01:19;;;;;;;20.85;9.50;;;;;;;;;;10367668;28;20025;-67
2023/08/25 11:06:42;;;;;;;15.93;9.75;;;;;;;;;;10367605;28;20518;-67
2023/08/25 11:11:43;;;;;;;29.42;9.25;;;;;;;;;;10368147;28;20071;-67
2023/08/25 11:16:44;;;;;;;13.50;8.05;;;;;;;;;;10367284;28;20040;-67
2023/08/25 11:21:44;;;;;;;17.43;8.33;;;;;;;;;;10366232;28;20418;-69
2023/08/25 11:26:45;;;;;;;12.65;8.70;;;;;;;;;;10365885;28;20056;-69
2023/08/25 11:31:45;;;;;;;11.53;8.37;;;;;;;;;;10367198;28;20109;-67
2023/08/25 11:36:46;;;;;;;12.07;8.32;;;;;;;;;;10367191;28;20104;-68
2023/08/25 11:41:47;;;;;;;14.93;7.80;;;;;;;;;;10367155;28;20382;-65
2023/08/25 11:46:47;;;;;;;12.00;7.20;;;;;;;;;;10367343;28;20026;-65
2023/08/25 11:51:52;;;;;;;13.33;7.83;;;;;;;;;;10366939;28;20498;-65
2023/08/25 11:56:53;;;;;;;12.30;6.47;;;;;;;;;;10367210;28;20105;-64
2023/08/25 12:01:59;;;;;;;11.43;6.25;;;;;;;;;;10372980;28;20446;-65
2023/08/25 12:07:02;;;;;;;10.65;6.43;;;;;;;;;;10372922;28;20032;-65
2023/08/25 12:12:03;;;;;;;17.83;6.57;;;;;;;;;;10373921;28;20034;-63
2023/08/25 12:17:04;;;;;;;9.48;6.60;;;;;;;;;;10372329;28;20440;-63
2023/08/25 12:22:04;;;;;;;12.63;6.63;;;;;;;;;;10374045;28;20084;-63
2023/08/25 12:27:04;;;;;;;9.77;6.32;;;;;;;;;;10373606;28;20366;-63
2023/08/25 12:32:07;;;;;;;11.80;6.30;;;;;;;;;;10372866;28;20104;-63
2023/08/25 12:37:07;;;;;;;13.38;6.50;;;;;;;;;;10372476;28;20053;-63
2023/08/25 12:42:08;;;;;;;12.40;6.13;;;;;;;;;;10372726;28;20025;-63
2023/08/25 12:47:08;;;;;;;7.53;6.17;;;;;;;;;;10372331;28;20112;-63
2023/08/25 12:52:09;;;;;;;9.17;5.83;;;;;;;;;;10371682;28;20478;-63
2023/08/25 12:57:09;;;;;;;10.98;6.38;;;;;;;;;;10371932;28;20478;-63
2023/08/25 13:02:10;;;;;;;11.93;6.43;;;;;;;;;;10371840;28;20127;-63
2023/08/25 13:07:12;;;;;;;10.60;6.40;;;;;;;;;;10372180;28;20029;-63
2023/08/25 13:12:12;;;;;;;8.02;6.18;;;;;;;;;;10371077;28;20099;-63
2023/08/25 13:17:13;;;;;;;8.57;5.73;;;;;;;;;;10371656;28;20099;-63
2023/08/25 13:22:14;;;;;;;13.40;6.20;;;;;;;;;;10369814;28;20036;-63
2023/08/25 13:27:18;;;;;;;9.90;6.20;;;;;;;;;;10370976;28;20522;-63
2023/08/25 13:32:18;;;;;;;9.45;6.57;;;;;;;;;;10369787;28;20021;-63
2023/08/25 13:37:18;;;;;;;6.67;5.27;;;;;;;;;;10369436;28;20038;-63
2023/08/25 13:42:19;;;;;;;9.17;5.57;;;;;;;;;;10370210;28;20105;-63
2023/08/25 13:47:20;;;;;;;10.52;5.93;;;;;;;;;;10370555;28;20037;-63
2023/08/25 13:52:20;;;;;;;10.30;5.97;;;;;;;;;;10369974;28;20033;-63
2023/08/25 13:57:21;;;;;;;6.97;5.07;;;;;;;;;;10369680;28;20116;-63
2023/08/25 14:02:21;;;;;;;14.52;5.55;;;;;;;;;;10369394;28;20022;-62
2023/08/25 14:07:21;;;;;;;6.50;5.10;;;;;;;;;;10369705;28;20022;-63
2023/08/25 14:12:22;;;;;;;9.57;6.13;;;;;;;;;;10369106;28;20257;-63
2023/08/25 14:17:22;;;;;;;7.60;5.50;;;;;;;;;;10368450;28;20448;-63
2023/08/25 14:22:23;;;;;;;9.65;5.63;;;;;;;;;;10367825;28;20428;-63
2023/08/25 14:27:24;;;;;;;8.48;5.18;;;;;;;;;;10369123;28;20458;-63
2023/08/25 14:32:24;;;;;;;10.43;5.30;;;;;;;;;;10369041;28;20363;-63
2023/08/25 14:37:24;;;;;;;9.30;5.60;;;;;;;;;;10368303;28;20991;-63
2023/08/25 14:42:25;;;;;;;8.60;5.33;;;;;;;;;;10368574;28;20171;-63
2023/08/25 14:47:25;;;;;;;12.83;5.23;;;;;;;;;;10368156;28;20075;-63
2023/08/25 14:52:26;;;;;;;10.43;5.20;;;;;;;;;;10368141;28;20029;-63
2023/08/25 14:57:27;;;;;;;17.38;5.45;;;;;;;;;;10368517;28;20064;-63
2023/08/25 15:02:28;;;;;;;6.17;4.60;;;;;;;;;;10367852;28;20056;-63
2023/08/25 15:07:29;;;;;;;7.50;4.85;;;;;;;;;;10368269;28;20049;-62
2023/08/25 15:12:29;;;;;;;11.20;5.17;;;;;;;;;;10368092;28;20081;-62
2023/08/25 15:17:29;;;;;;;6.97;4.73;;;;;;;;;;10367547;28;20022;-61
2023/08/25 15:22:30;;;;;;;8.83;5.10;;;;;;;;;;10367503;28;20100;-61
2023/08/25 15:27:30;;;;;;;6.47;4.57;;;;;;;;;;10367177;28;20041;-60
2023/08/25 15:32:31;;;;;;;11.20;5.22;;;;;;;;;;10369414;28;20029;-61
2023/08/25 15:37:31;;;;;;;7.27;4.77;;;;;;;;;;10374928;28;20448;-61
2023/08/25 15:42:32;;;;;;;8.85;5.20;;;;;;;;;;10375931;28;20033;-61
2023/08/25 15:47:32;;;;;;;13.00;4.50;;;;;;;;;;10374759;28;20437;-61
2023/08/25 15:52:32;;;;;;;6.40;4.83;;;;;;;;;;10375036;28;20029;-61
2023/08/25 15:57:33;;;;;;;7.17;4.17;;;;;;;;;;10374349;28;20534;-61
2023/08/25 16:02:33;;;;;;;6.10;4.50;;;;;;;;;;10374111;28;20030;-61
2023/08/25 16:07:34;;;;;;;7.47;4.47;;;;;;;;;;10373995;28;20539;-61
2023/08/25 16:12:34;;;;;;;4.70;3.93;;;;;;;;;;10373747;28;20119;-61
2023/08/25 16:17:34;;;;;;;5.40;4.50;;;;;;;;;;10372551;28;20033;-61
2023/08/25 16:22:37;;;;;;;6.77;4.37;;;;;;;;;;10373368;28;20774;-61
2023/08/25 16:27:38;;;;;;;6.32;4.75;;;;;;;;;;10373361;28;20544;-61
2023/08/25 16:32:41;;;;;;;5.80;4.28;;;;;;;;;;10373023;28;20084;-61
2023/08/25 16:37:41;;;;;;;6.18;4.25;;;;;;;;;;10372883;28;20038;-61
2023/08/25 16:42:42;;;;;;;5.07;4.10;;;;;;;;;;10372692;28;20026;-61
2023/08/25 16:47:42;;;;;;;10.17;4.53;;;;;;;;;;10371460;28;20022;-61
2023/08/25 16:52:42;;;;;;;5.83;4.30;;;;;;;;;;10371928;28;20030;-61
2023/08/25 16:57:43;;;;;;;5.90;4.50;;;;;;;;;;10371273;28;20018;-61
2023/08/25 17:02:45;;;;;;;8.95;4.43;;;;;;;;;;10371391;28;20022;-61
2023/08/25 17:07:50;;;;;;;10.43;4.30;;;;;;;;;;10371011;28;20045;-61
2023/08/25 17:12:52;;;;;;;6.25;4.88;;;;;;;;;;10370821;28;20034;-61
2023/08/25 17:17:52;;;;;;;11.27;4.38;;;;;;;;;;10370798;28;20496;-61
2023/08/25 17:22:53;;;;;;;6.43;4.83;;;;;;;;;;10370300;28;20032;-61
2023/08/25 17:27:53;;;;;;;11.17;4.53;;;;;;;;;;10371488;28;20079;-61
2023/08/25 17:32:54;;;;;;;5.75;4.43;;;;;;;;;;10370976;28;20036;-61
2023/08/25 17:37:54;;;;;;;6.30;4.03;;;;;;;;;;10370008;28;20068;-63
2023/08/25 17:42:54;;;;;;;6.43;4.20;;;;;;;;;;10369158;28;20113;-63
2023/08/25 17:47:55;;;;;;;6.77;4.27;;;;;;;;;;10370094;28;20072;-62
2023/08/25 17:52:55;;;;;;;6.03;4.33;;;;;;;;;;10369811;28;20026;-61
2023/08/25 17:57:55;;;;;;;5.40;4.80;;;;;;;;;;10368890;28;20113;-62
2023/08/25 18:02:56;;;;;;;6.40;4.53;;;;;;;;;;10370324;28;20092;-61
2023/08/25 18:07:56;;;;;;;7.00;4.50;;;;;;;;;;10369652;28;20393;-62
2023/08/25 18:12:56;;;;;;;7.17;5.13;;;;;;;;;;10369444;28;20469;-64
2023/08/25 18:17:57;;;;;;;5.23;4.13;;;;;;;;;;10369670;28;20041;-62
2023/08/25 18:22:57;;;;;;;5.28;4.50;;;;;;;;;;10370093;28;20120;-62
2023/08/25 18:27:58;;;;;;;5.60;4.40;;;;;;;;;;10369524;28;20112;-61
2023/08/25 18:32:59;;;;;;;5.00;4.50;;;;;;;;;;10368540;28;20505;-62
2023/08/25 18:38:00;;;;;;;6.13;4.78;;;;;;;;;;10368188;28;20552;-62
2023/08/25 18:43:00;;;;;;;6.57;4.72;;;;;;;;;;10367904;28;20113;-63
2023/08/25 18:48:00;;;;;;;6.30;4.60;;;;;;;;;;10367643;28;20080;-62
2023/08/25 18:53:01;;;;;;;7.47;4.73;;;;;;;;;;10368349;28;20124;-62
2023/08/25 18:58:01;;;;;;;6.45;4.68;;;;;;;;;;10367891;28;20112;-62
2023/08/25 19:03:02;;;;;;;8.13;5.03;;;;;;;;;;10367958;28;20377;-62
2023/08/25 19:08:03;;;;;;;5.82;4.28;;;;;;;;;;10367705;28;20105;-61
2023/08/25 19:13:03;;;;;;;20.55;4.55;;;;;;;;;;10367368;28;20033;-63
2023/08/25 19:18:04;;;;;;;26.13;5.75;;;;;;;;;;10366376;28;20037;-61
2023/08/25 19:23:04;;;;;;;12.77;4.78;;;;;;;;;;10367571;28;20049;-62
2023/08/25 19:28:05;;;;;;;9.93;4.60;;;;;;;;;;10366880;28;20026;-62
2023/08/25 19:33:07;;;;;;;12.43;4.53;;;;;;;;;;10366908;28;20445;-61
2023/08/25 19:38:07;;;;;;;6.43;4.50;;;;;;;;;;10367131;28;20053;-62
2023/08/25 19:43:07;;;;;;;6.23;4.70;;;;;;;;;;10367651;28;20299;-61
2023/08/25 19:48:09;;;;;;;11.53;4.60;;;;;;;;;;10365909;28;20978;-62
2023/08/25 19:53:09;;;;;;;5.60;4.20;;;;;;;;;;10365250;28;20037;-62
2023/08/25 19:58:09;;;;;;;12.77;4.70;;;;;;;;;;10365453;28;20033;-59
2023/08/25 20:03:10;;;;;;;16.93;4.80;;;;;;;;;;10365967;28;20032;-57
2023/08/25 20:08:11;;;;;;;18.98;4.90;;;;;;;;;;10366116;28;20025;-55
2023/08/25 20:13:11;;;;;;;8.77;4.50;;;;;;;;;;10365988;28;20040;-57
2023/08/25 20:18:13;;;;;;;12.50;4.50;;;;;;;;;;10366005;28;20092;-60
2023/08/25 20:23:17;;;;;;;12.73;4.72;;;;;;;;;;10372678;28;20456;-59
2023/08/25 20:28:18;;;;;;;7.78;4.13;;;;;;;;;;10373081;28;20040;-62
2023/08/25 20:33:18;;;;;;;13.27;4.22;;;;;;;;;;10372064;28;20052;-61
2023/08/25 20:38:19;;;;;;;15.75;4.45;;;;;;;;;;10371480;28;20046;-60
2023/08/25 20:43:19;;;;;;;7.73;3.77;;;;;;;;;;10371764;28;20174;-60
2023/08/25 20:48:19;;;;;;;10.47;4.73;;;;;;;;;;10371579;28;20036;-60
2023/08/25 20:53:20;;;;;;;18.23;4.93;;;;;;;;;;10371717;28;20026;-62
2023/08/25 20:58:23;;;;;;;14.63;4.47;;;;;;;;;;10371502;28;20038;-60
2023/08/25 21:03:23;;;;;;;16.67;4.32;;;;;;;;;;10371785;28;20034;-60
2023/08/25 21:08:24;;;;;;;7.63;4.27;;;;;;;;;;10371515;28;20433;-60
2023/08/25 21:13:32;;;;;;;6.05;4.78;;;;;;;;;;10371198;28;20489;-60
2023/08/25 21:18:32;;;;;;;6.20;4.38;;;;;;;;;;10370880;28;20033;-59
2023/08/25 21:23:33;;;;;;;7.97;4.67;;;;;;;;;;10370999;28;20038;-59
2023/08/25 21:28:33;;;;;;;9.63;4.30;;;;;;;;;;10370889;28;20025;-60
2023/08/25 21:33:34;;;;;;;11.60;4.15;;;;;;;;;;10370711;28;20493;-58
2023/08/25 21:38:34;;;;;;;6.93;4.27;;;;;;;;;;10370023;28;20548;-60
2023/08/25 21:43:34;;;;;;;5.13;3.70;;;;;;;;;;10370418;28;20424;-58
2023/08/25 21:48:35;;;;;;;9.13;4.10;;;;;;;;;;10369914;28;20033;-59
2023/08/25 21:53:35;;;;;;;4.27;3.53;;;;;;;;;;10369965;28;20040;-58
2023/08/25 21:58:35;;;;;;;6.93;3.90;;;;;;;;;;10369782;28;20030;-60
2023/08/25 22:03:36;;;;;;;6.17;4.00;;;;;;;;;;10369588;28;20037;-58
2023/08/25 22:08:36;;;;;;;4.97;3.80;;;;;;;;;;10369546;28;20030;-59
2023/08/25 22:13:36;;;;;;;5.53;3.60;;;;;;;;;;10369517;28;20682;-60
2023/08/25 22:18:37;;;;;;;5.97;4.20;;;;;;;;;;10369393;28;20034;-60
2023/08/25 22:23:37;;;;;;;4.37;3.97;;;;;;;;;;10369145;28;20124;-59
2023/08/25 22:28:37;;;;;;;5.37;3.53;;;;;;;;;;10369122;28;20034;-60
2023/08/25 22:33:38;;;;;;;5.63;3.87;;;;;;;;;;10368754;28;20053;-60
2023/08/25 22:38:38;;;;;;;4.37;3.50;;;;;;;;;;10368419;28;20050;-59
2023/08/25 22:43:38;;;;;;;5.27;4.03;;;;;;;;;;10367724;28;20034;-60
2023/08/25 22:48:39;;;;;;;4.90;3.63;;;;;;;;;;10368154;28;20125;-58
2023/08/25 22:53:39;;;;;;;4.83;3.80;;;;;;;;;;10367882;28;20033;-58
2023/08/25 22:58:40;;;;;;;6.30;3.77;;;;;;;;;;10368282;28;20061;-58
2023/08/25 23:03:40;;;;;;;5.07;3.35;;;;;;;;;;10367678;28;20029;-60
2023/08/25 23:08:41;;;;;;;4.22;3.80;;;;;;;;;;10366606;28;20022;-59
2023/08/25 23:13:41;;;;;;;5.33;3.70;;;;;;;;;;10367809;28;20079;-59
2023/08/25 23:18:43;;;;;;;4.67;3.80;;;;;;;;;;10367486;28;20539;-59
2023/08/25 23:23:44;;;;;;;3.67;3.38;;;;;;;;;;10368846;28;20030;-57
2023/08/25 23:28:45;;;;;;;4.45;3.67;;;;;;;;;;10367494;28;20030;-57
2023/08/25 23:33:45;;;;;;;4.73;3.13;;;;;;;;;;10367259;28;20030;-57
2023/08/25 23:38:46;;;;;;;3.50;3.10;;;;;;;;;;10367025;28;20524;-58
2023/08/25 23:43:47;;;;;;;4.17;3.77;;;;;;;;;;10367030;28;20401;-57
2023/08/25 23:48:47;;;;;;;4.13;3.72;;;;;;;;;;10366880;28;20056;-57
2023/08/25 23:53:47;;;;;;;5.17;4.10;;;;;;;;;;10369460;28;20037;-57
2023/08/25 23:58:48;;;;;;;6.20;3.67;;;;;;;;;;10374146;28;20037;-57
